sensor_id;sensor_type;location;lat;lon;timestamp;temperature;humidity
9437;DHT22;4757;59.334;18.034;2022-09-02T00:02:23;10.80;99.90
9437;DHT22;4757;59.334;18.034;2022-09-02T00:04:51;10.80;99.90
9437;DHT22;4757;59.334;18.034;2022-09-02T00:07:18;10.60;99.90
9437;DHT22;4757;59.334;18.034;2022-09-02T00:09:45;10.60;99.90
9437;DHT22;4757;59.334;18.034;2022-09-02T00:12:12;10.70;99.90
9437;DHT22;4757;59.334;18.034;2022-09-02T00:14:39;10.70;99.90
9437;DHT22;4757;59.334;18.034;2022-09-02T00:17:06;10.70;99.90
9437;DHT22;4757;59.334;18.034;2022-09-02T00:19:34;10.70;99.90
9437;DHT22;4757;59.334;18.034;2022-09-02T00:22:02;10.60;99.90
9437;DHT22;4757;59.334;18.034;2022-09-02T00:24:29;10.50;99.90
9437;DHT22;4757;59.334;18.034;2022-09-02T00:26:57;10.50;99.90
9437;DHT22;4757;59.334;18.034;2022-09-02T00:29:26;10.50;99.90
9437;DHT22;4757;59.334;18.034;2022-09-02T00:31:53;10.50;99.90
9437;DHT22;4757;59.334;18.034;2022-09-02T00:34:21;10.50;99.90
9437;DHT22;4757;59.334;18.034;2022-09-02T00:36:48;10.50;99.90
9437;DHT22;4757;59.334;18.034;2022-09-02T00:39:15;10.40;99.90
9437;DHT22;4757;59.334;18.034;2022-09-02T00:41:43;10.40;99.90
9437;DHT22;4757;59.334;18.034;2022-09-02T00:44:13;10.40;99.90
9437;DHT22;4757;59.334;18.034;2022-09-02T00:46:40;10.50;99.90
9437;DHT22;4757;59.334;18.034;2022-09-02T00:49:14;10.30;99.90
9437;DHT22;4757;59.334;18.034;2022-09-02T00:51:48;10.30;99.90
9437;DHT22;4757;59.334;18.034;2022-09-02T00:54:19;10.20;99.90
9437;DHT22;4757;59.334;18.034;2022-09-02T00:56:47;10.30;99.90
9437;DHT22;4757;59.334;18.034;2022-09-02T01:02:06;10.30;99.90
9437;DHT22;4757;59.334;18.034;2022-09-02T01:04:35;10.20;99.90
9437;DHT22;4757;59.334;18.034;2022-09-02T01:07:02;10.30;99.90
9437;DHT22;4757;59.334;18.034;2022-09-02T01:09:30;10.20;99.90
9437;DHT22;4757;59.334;18.034;2022-09-02T01:11:59;10.10;99.90
9437;DHT22;4757;59.334;18.034;2022-09-02T01:14:29;10.10;99.90
9437;DHT22;4757;59.334;18.034;2022-09-02T01:16:58;10.20;99.90
9437;DHT22;4757;59.334;18.034;2022-09-02T01:19:34;10.10;99.90
9437;DHT22;4757;59.334;18.034;2022-09-02T01:22:14;10.00;99.90
9437;DHT22;4757;59.334;18.034;2022-09-02T01:24:41;10.10;99.90
9437;DHT22;4757;59.334;18.034;2022-09-02T01:27:09;10.00;99.90
9437;DHT22;4757;59.334;18.034;2022-09-02T01:29:39;10.10;99.90
9437;DHT22;4757;59.334;18.034;2022-09-02T01:32:06;9.90;99.90
9437;DHT22;4757;59.334;18.034;2022-09-02T01:34:34;10.10;99.90
9437;DHT22;4757;59.334;18.034;2022-09-02T01:37:01;10.00;99.90
9437;DHT22;4757;59.334;18.034;2022-09-02T01:39:28;10.10;99.90
9437;DHT22;4757;59.334;18.034;2022-09-02T01:41:55;10.10;99.90
9437;DHT22;4757;59.334;18.034;2022-09-02T01:44:22;10.20;99.90
9437;DHT22;4757;59.334;18.034;2022-09-02T01:46:51;10.10;99.90
9437;DHT22;4757;59.334;18.034;2022-09-02T01:49:19;10.20;99.90
9437;DHT22;4757;59.334;18.034;2022-09-02T01:51:46;10.10;99.90
9437;DHT22;4757;59.334;18.034;2022-09-02T01:54:13;10.10;99.90
9437;DHT22;4757;59.334;18.034;2022-09-02T01:56:41;10.10;99.90
9437;DHT22;4757;59.334;18.034;2022-09-02T01:59:08;10.10;99.90
9437;DHT22;4757;59.334;18.034;2022-09-02T02:01:37;10.00;99.90
9437;DHT22;4757;59.334;18.034;2022-09-02T02:04:04;10.10;99.90
9437;DHT22;4757;59.334;18.034;2022-09-02T02:06:40;10.00;99.90
9437;DHT22;4757;59.334;18.034;2022-09-02T02:09:10;10.00;99.90
9437;DHT22;4757;59.334;18.034;2022-09-02T02:11:38;10.00;99.90
9437;DHT22;4757;59.334;18.034;2022-09-02T02:14:05;10.00;99.90
9437;DHT22;4757;59.334;18.034;2022-09-02T02:16:32;10.00;99.90
9437;DHT22;4757;59.334;18.034;2022-09-02T02:18:59;9.90;99.90
9437;DHT22;4757;59.334;18.034;2022-09-02T02:21:27;10.00;99.90
9437;DHT22;4757;59.334;18.034;2022-09-02T02:23:54;10.00;99.90
9437;DHT22;4757;59.334;18.034;2022-09-02T02:26:21;10.00;99.90
9437;DHT22;4757;59.334;18.034;2022-09-02T02:28:48;10.10;99.90
9437;DHT22;4757;59.334;18.034;2022-09-02T02:31:15;10.20;99.90
9437;DHT22;4757;59.334;18.034;2022-09-02T02:33:42;10.20;99.90
9437;DHT22;4757;59.334;18.034;2022-09-02T02:36:10;10.20;99.90
9437;DHT22;4757;59.334;18.034;2022-09-02T02:38:38;10.10;99.90
9437;DHT22;4757;59.334;18.034;2022-09-02T02:41:06;10.20;99.90
9437;DHT22;4757;59.334;18.034;2022-09-02T02:43:34;10.20;99.90
9437;DHT22;4757;59.334;18.034;2022-09-02T02:46:02;10.10;99.90
9437;DHT22;4757;59.334;18.034;2022-09-02T02:48:29;10.10;99.90
9437;DHT22;4757;59.334;18.034;2022-09-02T02:50:56;10.10;99.90
9437;DHT22;4757;59.334;18.034;2022-09-02T02:53:23;10.10;99.90
9437;DHT22;4757;59.334;18.034;2022-09-02T02:55:51;10.10;99.90
9437;DHT22;4757;59.334;18.034;2022-09-02T02:58:17;10.10;99.90
9437;DHT22;4757;59.334;18.034;2022-09-02T03:00:45;10.10;99.90
9437;DHT22;4757;59.334;18.034;2022-09-02T03:03:13;10.00;99.90
9437;DHT22;4757;59.334;18.034;2022-09-02T03:05:40;10.00;99.90
9437;DHT22;4757;59.334;18.034;2022-09-02T03:08:08;10.00;99.90
9437;DHT22;4757;59.334;18.034;2022-09-02T03:10:37;10.00;99.90
9437;DHT22;4757;59.334;18.034;2022-09-02T03:13:04;10.00;99.90
9437;DHT22;4757;59.334;18.034;2022-09-02T03:15:31;10.10;99.90
9437;DHT22;4757;59.334;18.034;2022-09-02T03:17:58;10.00;99.90
9437;DHT22;4757;59.334;18.034;2022-09-02T03:20:26;10.00;99.90
9437;DHT22;4757;59.334;18.034;2022-09-02T03:22:55;9.90;99.90
9437;DHT22;4757;59.334;18.034;2022-09-02T03:25:23;9.90;99.90
9437;DHT22;4757;59.334;18.034;2022-09-02T03:27:51;9.90;99.90
9437;DHT22;4757;59.334;18.034;2022-09-02T03:30:25;9.90;99.90
9437;DHT22;4757;59.334;18.034;2022-09-02T03:32:53;9.90;99.90
9437;DHT22;4757;59.334;18.034;2022-09-02T03:35:24;9.80;99.90
9437;DHT22;4757;59.334;18.034;2022-09-02T03:37:52;9.90;99.90
9437;DHT22;4757;59.334;18.034;2022-09-02T03:40:24;9.80;99.90
9437;DHT22;4757;59.334;18.034;2022-09-02T03:42:53;9.80;99.90
9437;DHT22;4757;59.334;18.034;2022-09-02T03:45:26;9.80;99.90
9437;DHT22;4757;59.334;18.034;2022-09-02T03:47:53;9.80;99.90
9437;DHT22;4757;59.334;18.034;2022-09-02T03:50:24;9.90;99.90
9437;DHT22;4757;59.334;18.034;2022-09-02T03:52:51;9.70;99.90
9437;DHT22;4757;59.334;18.034;2022-09-02T03:55:19;9.60;99.90
9437;DHT22;4757;59.334;18.034;2022-09-02T03:57:46;9.70;99.90
9437;DHT22;4757;59.334;18.034;2022-09-02T04:00:17;9.70;99.90
9437;DHT22;4757;59.334;18.034;2022-09-02T04:02:44;9.80;99.90
9437;DHT22;4757;59.334;18.034;2022-09-02T04:05:16;9.70;99.90
9437;DHT22;4757;59.334;18.034;2022-09-02T04:07:43;9.70;99.90
9437;DHT22;4757;59.334;18.034;2022-09-02T04:10:13;9.50;99.90
9437;DHT22;4757;59.334;18.034;2022-09-02T04:12:40;9.50;99.90
9437;DHT22;4757;59.334;18.034;2022-09-02T04:15:10;9.50;99.90
9437;DHT22;4757;59.334;18.034;2022-09-02T04:17:39;9.50;99.90
9437;DHT22;4757;59.334;18.034;2022-09-02T04:20:09;9.50;99.90
9437;DHT22;4757;59.334;18.034;2022-09-02T04:22:37;9.60;99.90
9437;DHT22;4757;59.334;18.034;2022-09-02T04:25:05;9.60;99.90
9437;DHT22;4757;59.334;18.034;2022-09-02T04:27:34;9.60;99.90
9437;DHT22;4757;59.334;18.034;2022-09-02T04:30:01;9.60;99.90
9437;DHT22;4757;59.334;18.034;2022-09-02T04:32:28;9.60;99.90
9437;DHT22;4757;59.334;18.034;2022-09-02T04:34:56;9.60;99.90
9437;DHT22;4757;59.334;18.034;2022-09-02T04:37:23;9.60;99.90
9437;DHT22;4757;59.334;18.034;2022-09-02T04:39:51;9.60;99.90
9437;DHT22;4757;59.334;18.034;2022-09-02T04:42:18;9.60;99.90
9437;DHT22;4757;59.334;18.034;2022-09-02T04:44:45;9.60;99.90
9437;DHT22;4757;59.334;18.034;2022-09-02T04:47:12;9.60;99.90
9437;DHT22;4757;59.334;18.034;2022-09-02T04:49:40;9.50;99.90
9437;DHT22;4757;59.334;18.034;2022-09-02T04:52:08;9.50;99.90
9437;DHT22;4757;59.334;18.034;2022-09-02T04:54:36;9.50;99.90
9437;DHT22;4757;59.334;18.034;2022-09-02T04:57:04;9.60;99.90
9437;DHT22;4757;59.334;18.034;2022-09-02T04:59:32;9.70;99.90
9437;DHT22;4757;59.334;18.034;2022-09-02T05:02:03;9.70;99.90
9437;DHT22;4757;59.334;18.034;2022-09-02T05:04:31;9.70;99.90
9437;DHT22;4757;59.334;18.034;2022-09-02T05:06:59;9.70;99.90
9437;DHT22;4757;59.334;18.034;2022-09-02T05:09:30;9.80;99.90
9437;DHT22;4757;59.334;18.034;2022-09-02T05:11:57;9.90;99.90
9437;DHT22;4757;59.334;18.034;2022-09-02T05:14:30;9.90;99.90
9437;DHT22;4757;59.334;18.034;2022-09-02T05:16:57;9.90;99.90
9437;DHT22;4757;59.334;18.034;2022-09-02T05:19:33;9.90;99.90
9437;DHT22;4757;59.334;18.034;2022-09-02T05:22:00;10.00;99.90
9437;DHT22;4757;59.334;18.034;2022-09-02T05:24:27;10.00;99.90
9437;DHT22;4757;59.334;18.034;2022-09-02T05:26:55;10.10;99.90
9437;DHT22;4757;59.334;18.034;2022-09-02T05:29:22;10.10;99.90
9437;DHT22;4757;59.334;18.034;2022-09-02T05:31:49;10.20;99.90
9437;DHT22;4757;59.334;18.034;2022-09-02T05:34:17;10.30;99.90
9437;DHT22;4757;59.334;18.034;2022-09-02T05:36:44;10.30;99.90
9437;DHT22;4757;59.334;18.034;2022-09-02T05:39:12;10.40;99.90
9437;DHT22;4757;59.334;18.034;2022-09-02T05:41:39;10.40;99.90
9437;DHT22;4757;59.334;18.034;2022-09-02T05:44:06;10.50;99.90
9437;DHT22;4757;59.334;18.034;2022-09-02T05:46:34;10.50;99.90
9437;DHT22;4757;59.334;18.034;2022-09-02T05:49:01;10.60;99.90
9437;DHT22;4757;59.334;18.034;2022-09-02T05:51:44;10.70;99.90
9437;DHT22;4757;59.334;18.034;2022-09-02T05:54:21;10.70;99.90
9437;DHT22;4757;59.334;18.034;2022-09-02T05:56:51;10.80;99.90
9437;DHT22;4757;59.334;18.034;2022-09-02T05:59:20;10.90;99.90
9437;DHT22;4757;59.334;18.034;2022-09-02T06:01:50;10.90;99.90
9437;DHT22;4757;59.334;18.034;2022-09-02T06:04:17;11.00;99.90
9437;DHT22;4757;59.334;18.034;2022-09-02T06:06:45;10.90;99.90
9437;DHT22;4757;59.334;18.034;2022-09-02T06:09:14;11.10;99.90
9437;DHT22;4757;59.334;18.034;2022-09-02T06:11:43;11.20;99.90
9437;DHT22;4757;59.334;18.034;2022-09-02T06:14:21;11.00;99.90
9437;DHT22;4757;59.334;18.034;2022-09-02T06:16:48;11.10;99.90
9437;DHT22;4757;59.334;18.034;2022-09-02T06:19:17;11.60;99.90
9437;DHT22;4757;59.334;18.034;2022-09-02T06:21:47;12.00;99.90
9437;DHT22;4757;59.334;18.034;2022-09-02T06:24:15;12.20;99.90
9437;DHT22;4757;59.334;18.034;2022-09-02T06:26:42;12.60;99.90
9437;DHT22;4757;59.334;18.034;2022-09-02T06:29:10;13.10;99.90
9437;DHT22;4757;59.334;18.034;2022-09-02T06:31:43;13.40;99.90
9437;DHT22;4757;59.334;18.034;2022-09-02T06:34:12;13.50;99.90
9437;DHT22;4757;59.334;18.034;2022-09-02T06:36:43;13.30;99.90
9437;DHT22;4757;59.334;18.034;2022-09-02T06:39:16;13.00;99.90
9437;DHT22;4757;59.334;18.034;2022-09-02T06:41:44;13.10;99.90
9437;DHT22;4757;59.334;18.034;2022-09-02T06:44:12;13.20;99.90
9437;DHT22;4757;59.334;18.034;2022-09-02T06:46:45;13.60;99.90
9437;DHT22;4757;59.334;18.034;2022-09-02T06:49:14;14.30;99.90
9437;DHT22;4757;59.334;18.034;2022-09-02T06:51:45;14.50;99.90
9437;DHT22;4757;59.334;18.034;2022-09-02T06:54:15;13.70;99.90
9437;DHT22;4757;59.334;18.034;2022-09-02T06:56:47;13.70;99.90
9437;DHT22;4757;59.334;18.034;2022-09-02T06:59:17;13.70;99.90
9437;DHT22;4757;59.334;18.034;2022-09-02T07:01:44;14.60;99.90
9437;DHT22;4757;59.334;18.034;2022-09-02T07:04:12;14.00;99.90
9437;DHT22;4757;59.334;18.034;2022-09-02T07:06:58;14.40;99.90
9437;DHT22;4757;59.334;18.034;2022-09-02T07:09:27;14.40;99.90
9437;DHT22;4757;59.334;18.034;2022-09-02T07:12:01;14.70;99.90
9437;DHT22;4757;59.334;18.034;2022-09-02T07:14:37;14.40;99.90
9437;DHT22;4757;59.334;18.034;2022-09-02T07:17:05;14.60;99.90
9437;DHT22;4757;59.334;18.034;2022-09-02T07:19:33;15.00;99.90
9437;DHT22;4757;59.334;18.034;2022-09-02T07:22:05;14.70;99.90
9437;DHT22;4757;59.334;18.034;2022-09-02T07:24:32;15.30;99.90
9437;DHT22;4757;59.334;18.034;2022-09-02T07:26:59;14.50;99.90
9437;DHT22;4757;59.334;18.034;2022-09-02T07:29:27;14.10;99.90
9437;DHT22;4757;59.334;18.034;2022-09-02T07:31:54;14.50;99.90
9437;DHT22;4757;59.334;18.034;2022-09-02T07:34:21;15.00;99.90
9437;DHT22;4757;59.334;18.034;2022-09-02T07:36:49;13.70;99.90
9437;DHT22;4757;59.334;18.034;2022-09-02T07:39:17;14.80;99.90
9437;DHT22;4757;59.334;18.034;2022-09-02T07:41:47;14.20;99.90
9437;DHT22;4757;59.334;18.034;2022-09-02T07:44:17;14.00;99.90
9437;DHT22;4757;59.334;18.034;2022-09-02T07:46:45;14.20;99.90
9437;DHT22;4757;59.334;18.034;2022-09-02T07:49:13;14.20;99.90
9437;DHT22;4757;59.334;18.034;2022-09-02T07:51:44;14.60;99.90
9437;DHT22;4757;59.334;18.034;2022-09-02T07:54:17;15.70;99.90
9437;DHT22;4757;59.334;18.034;2022-09-02T07:56:45;15.50;99.90
9437;DHT22;4757;59.334;18.034;2022-09-02T07:59:12;14.70;99.90
9437;DHT22;4757;59.334;18.034;2022-09-02T08:01:40;14.40;99.90
9437;DHT22;4757;59.334;18.034;2022-09-02T08:04:16;14.70;99.90
9437;DHT22;4757;59.334;18.034;2022-09-02T08:06:45;14.70;99.90
9437;DHT22;4757;59.334;18.034;2022-09-02T08:09:12;14.60;99.90
9437;DHT22;4757;59.334;18.034;2022-09-02T08:11:42;14.30;99.90
9437;DHT22;4757;59.334;18.034;2022-09-02T08:14:12;14.20;99.90
9437;DHT22;4757;59.334;18.034;2022-09-02T08:16:42;14.20;99.90
9437;DHT22;4757;59.334;18.034;2022-09-02T08:19:11;14.20;99.90
9437;DHT22;4757;59.334;18.034;2022-09-02T08:21:38;14.60;99.90
9437;DHT22;4757;59.334;18.034;2022-09-02T08:24:05;14.80;99.90
9437;DHT22;4757;59.334;18.034;2022-09-02T08:26:34;14.50;99.90
9437;DHT22;4757;59.334;18.034;2022-09-02T08:29:05;14.50;99.90
9437;DHT22;4757;59.334;18.034;2022-09-02T08:31:33;14.30;99.90
9437;DHT22;4757;59.334;18.034;2022-09-02T08:34:02;15.00;99.90
9437;DHT22;4757;59.334;18.034;2022-09-02T08:36:29;15.00;99.90
9437;DHT22;4757;59.334;18.034;2022-09-02T08:38:56;15.00;99.90
9437;DHT22;4757;59.334;18.034;2022-09-02T08:41:26;15.40;99.90
9437;DHT22;4757;59.334;18.034;2022-09-02T08:43:58;15.00;99.90
9437;DHT22;4757;59.334;18.034;2022-09-02T08:46:27;14.90;99.90
9437;DHT22;4757;59.334;18.034;2022-09-02T08:49:09;15.40;99.90
9437;DHT22;4757;59.334;18.034;2022-09-02T08:51:50;15.60;99.90
9437;DHT22;4757;59.334;18.034;2022-09-02T08:57:23;15.90;99.90
9437;DHT22;4757;59.334;18.034;2022-09-02T08:59:57;15.80;99.90
9437;DHT22;4757;59.334;18.034;2022-09-02T09:05:39;16.50;99.90
9437;DHT22;4757;59.334;18.034;2022-09-02T09:16:10;15.20;99.90
9437;DHT22;4757;59.334;18.034;2022-09-02T09:18:48;15.00;99.90
9437;DHT22;4757;59.334;18.034;2022-09-02T09:21:21;15.40;99.90
9437;DHT22;4757;59.334;18.034;2022-09-02T09:23:53;16.00;99.90
9437;DHT22;4757;59.334;18.034;2022-09-02T09:26:27;16.40;99.90
9437;DHT22;4757;59.334;18.034;2022-09-02T09:28:55;14.90;99.90
9437;DHT22;4757;59.334;18.034;2022-09-02T09:31:29;14.60;99.90
9437;DHT22;4757;59.334;18.034;2022-09-02T09:34:10;14.70;99.90
9437;DHT22;4757;59.334;18.034;2022-09-02T09:39:22;15.40;99.90
9437;DHT22;4757;59.334;18.034;2022-09-02T09:41:52;16.40;99.90
9437;DHT22;4757;59.334;18.034;2022-09-02T09:44:47;16.60;99.90
9437;DHT22;4757;59.334;18.034;2022-09-02T09:47:18;15.80;99.90
9437;DHT22;4757;59.334;18.034;2022-09-02T09:49:47;15.00;99.90
9437;DHT22;4757;59.334;18.034;2022-09-02T09:52:27;15.20;99.90
9437;DHT22;4757;59.334;18.034;2022-09-02T09:57:33;15.40;99.90
9437;DHT22;4757;59.334;18.034;2022-09-02T10:03:02;15.00;99.90
9437;DHT22;4757;59.334;18.034;2022-09-02T10:05:35;14.90;99.90
9437;DHT22;4757;59.334;18.034;2022-09-02T10:08:24;14.80;99.90
9437;DHT22;4757;59.334;18.034;2022-09-02T10:16:47;14.50;99.90
9437;DHT22;4757;59.334;18.034;2022-09-02T10:24:47;14.20;99.90
9437;DHT22;4757;59.334;18.034;2022-09-02T10:30:24;14.80;99.90
9437;DHT22;4757;59.334;18.034;2022-09-02T10:36:02;15.60;99.90
9437;DHT22;4757;59.334;18.034;2022-09-02T10:38:42;15.60;99.90
9437;DHT22;4757;59.334;18.034;2022-09-02T10:41:14;15.50;99.90
9437;DHT22;4757;59.334;18.034;2022-09-02T10:44:03;15.40;99.90
9437;DHT22;4757;59.334;18.034;2022-09-02T10:46:47;15.80;99.90
9437;DHT22;4757;59.334;18.034;2022-09-02T10:58:03;15.20;99.90
9437;DHT22;4757;59.334;18.034;2022-09-02T11:00:37;14.10;99.90
9437;DHT22;4757;59.334;18.034;2022-09-02T11:03:14;13.50;99.90
9437;DHT22;4757;59.334;18.034;2022-09-02T11:05:50;13.40;99.90
9437;DHT22;4757;59.334;18.034;2022-09-02T11:08:23;13.30;99.90
9437;DHT22;4757;59.334;18.034;2022-09-02T11:16:34;13.70;99.90
9437;DHT22;4757;59.334;18.034;2022-09-02T11:19:19;13.70;99.90
9437;DHT22;4757;59.334;18.034;2022-09-02T11:22:04;13.80;99.90
9437;DHT22;4757;59.334;18.034;2022-09-02T11:24:43;13.70;99.90
9437;DHT22;4757;59.334;18.034;2022-09-02T11:27:27;13.70;99.90
9437;DHT22;4757;59.334;18.034;2022-09-02T11:30:14;14.10;99.90
9437;DHT22;4757;59.334;18.034;2022-09-02T11:35:27;14.00;99.90
9437;DHT22;4757;59.334;18.034;2022-09-02T11:44:04;13.60;99.90
9437;DHT22;4757;59.334;18.034;2022-09-02T11:52:42;13.60;99.90
9437;DHT22;4757;59.334;18.034;2022-09-02T11:56:03;14.10;99.90
9437;DHT22;4757;59.334;18.034;2022-09-02T11:58:11;14.20;99.90
9437;DHT22;4757;59.334;18.034;2022-09-02T12:02:02;13.50;99.90
9437;DHT22;4757;59.334;18.034;2022-09-02T12:09:47;14.10;99.90
9437;DHT22;4757;59.334;18.034;2022-09-02T12:15:25;14.10;99.90
9437;DHT22;4757;59.334;18.034;2022-09-02T12:18:12;13.90;99.90
9437;DHT22;4757;59.334;18.034;2022-09-02T12:26:24;14.80;99.90
9437;DHT22;4757;59.334;18.034;2022-09-02T12:28:52;14.90;99.90
9437;DHT22;4757;59.334;18.034;2022-09-02T12:31:41;15.20;99.90
9437;DHT22;4757;59.334;18.034;2022-09-02T12:36:58;14.50;99.90
9437;DHT22;4757;59.334;18.034;2022-09-02T12:41:59;13.90;99.90
9437;DHT22;4757;59.334;18.034;2022-09-02T12:50:10;12.40;99.90
9437;DHT22;4757;59.334;18.034;2022-09-02T12:52:50;12.20;99.90
9437;DHT22;4757;59.334;18.034;2022-09-02T12:55:27;12.10;99.90
9437;DHT22;4757;59.334;18.034;2022-09-02T12:58:09;12.30;99.90
9437;DHT22;4757;59.334;18.034;2022-09-02T13:09:16;12.90;99.90
9437;DHT22;4757;59.334;18.034;2022-09-02T13:18:10;14.90;99.90
9437;DHT22;4757;59.334;18.034;2022-09-02T13:23:56;15.70;99.90
9437;DHT22;4757;59.334;18.034;2022-09-02T13:27:05;16.20;99.90
9437;DHT22;4757;59.334;18.034;2022-09-02T13:32:33;15.00;99.90
9437;DHT22;4757;59.334;18.034;2022-09-02T13:35:04;15.10;99.90
9437;DHT22;4757;59.334;18.034;2022-09-02T13:37:35;15.10;99.90
9437;DHT22;4757;59.334;18.034;2022-09-02T13:40:18;15.10;99.90
9437;DHT22;4757;59.334;18.034;2022-09-02T13:42:51;15.10;99.90
9437;DHT22;4757;59.334;18.034;2022-09-02T13:45:20;14.80;99.90
9437;DHT22;4757;59.334;18.034;2022-09-02T13:47:56;15.00;99.90
9437;DHT22;4757;59.334;18.034;2022-09-02T13:50:27;14.80;99.90
9437;DHT22;4757;59.334;18.034;2022-09-02T13:53:04;14.40;99.90
9437;DHT22;4757;59.334;18.034;2022-09-02T13:55:54;14.80;99.90
9437;DHT22;4757;59.334;18.034;2022-09-02T14:01:33;14.50;99.90
9437;DHT22;4757;59.334;18.034;2022-09-02T14:04:11;15.10;99.90
9437;DHT22;4757;59.334;18.034;2022-09-02T14:06:44;14.60;99.90
9437;DHT22;4757;59.334;18.034;2022-09-02T14:09:38;14.70;99.90
9437;DHT22;4757;59.334;18.034;2022-09-02T14:12:06;14.70;99.90
9437;DHT22;4757;59.334;18.034;2022-09-02T14:14:34;14.40;99.90
9437;DHT22;4757;59.334;18.034;2022-09-02T14:17:21;14.50;99.90
9437;DHT22;4757;59.334;18.034;2022-09-02T14:19:50;14.60;99.90
9437;DHT22;4757;59.334;18.034;2022-09-02T14:22:25;14.80;99.90
9437;DHT22;4757;59.334;18.034;2022-09-02T14:24:53;14.30;99.90
9437;DHT22;4757;59.334;18.034;2022-09-02T14:27:22;14.20;99.90
9437;DHT22;4757;59.334;18.034;2022-09-02T14:29:56;13.90;99.90
9437;DHT22;4757;59.334;18.034;2022-09-02T14:32:25;14.20;99.90
9437;DHT22;4757;59.334;18.034;2022-09-02T14:37:56;14.50;99.90
9437;DHT22;4757;59.334;18.034;2022-09-02T14:40:35;14.40;99.90
9437;DHT22;4757;59.334;18.034;2022-09-02T14:43:03;14.30;99.90
9437;DHT22;4757;59.334;18.034;2022-09-02T14:45:37;14.30;99.90
9437;DHT22;4757;59.334;18.034;2022-09-02T14:48:23;14.20;99.90
9437;DHT22;4757;59.334;18.034;2022-09-02T14:51:02;13.90;99.90
9437;DHT22;4757;59.334;18.034;2022-09-02T14:53:31;13.60;99.90
9437;DHT22;4757;59.334;18.034;2022-09-02T14:55:59;13.60;99.90
9437;DHT22;4757;59.334;18.034;2022-09-02T14:58:27;13.70;99.90
9437;DHT22;4757;59.334;18.034;2022-09-02T15:00:57;13.70;99.90
9437;DHT22;4757;59.334;18.034;2022-09-02T15:03:26;13.60;99.90
9437;DHT22;4757;59.334;18.034;2022-09-02T15:05:53;13.70;99.90
9437;DHT22;4757;59.334;18.034;2022-09-02T15:08:21;13.80;99.90
9437;DHT22;4757;59.334;18.034;2022-09-02T15:10:49;13.90;99.90
9437;DHT22;4757;59.334;18.034;2022-09-02T15:13:24;14.10;99.90
9437;DHT22;4757;59.334;18.034;2022-09-02T15:15:53;14.20;99.90
9437;DHT22;4757;59.334;18.034;2022-09-02T15:18:22;13.90;99.90
9437;DHT22;4757;59.334;18.034;2022-09-02T15:20:49;13.80;99.90
9437;DHT22;4757;59.334;18.034;2022-09-02T15:23:16;14.00;99.90
9437;DHT22;4757;59.334;18.034;2022-09-02T15:25:44;14.10;99.90
9437;DHT22;4757;59.334;18.034;2022-09-02T15:28:11;14.10;99.90
9437;DHT22;4757;59.334;18.034;2022-09-02T15:30:39;14.20;99.90
9437;DHT22;4757;59.334;18.034;2022-09-02T15:33:08;14.20;99.90
9437;DHT22;4757;59.334;18.034;2022-09-02T15:35:43;14.00;99.90
9437;DHT22;4757;59.334;18.034;2022-09-02T15:38:13;13.80;99.90
9437;DHT22;4757;59.334;18.034;2022-09-02T15:40:40;13.80;99.90
9437;DHT22;4757;59.334;18.034;2022-09-02T15:43:07;13.90;99.90
9437;DHT22;4757;59.334;18.034;2022-09-02T15:45:44;13.80;99.90
9437;DHT22;4757;59.334;18.034;2022-09-02T15:48:15;13.70;99.90
9437;DHT22;4757;59.334;18.034;2022-09-02T15:50:42;13.80;99.90
9437;DHT22;4757;59.334;18.034;2022-09-02T15:53:13;13.80;99.90
9437;DHT22;4757;59.334;18.034;2022-09-02T15:55:41;13.90;99.90
9437;DHT22;4757;59.334;18.034;2022-09-02T15:58:08;13.80;99.90
9437;DHT22;4757;59.334;18.034;2022-09-02T16:00:38;13.80;99.90
9437;DHT22;4757;59.334;18.034;2022-09-02T16:03:09;13.80;99.90
9437;DHT22;4757;59.334;18.034;2022-09-02T16:05:37;13.90;99.90
9437;DHT22;4757;59.334;18.034;2022-09-02T16:08:04;13.90;99.90
9437;DHT22;4757;59.334;18.034;2022-09-02T16:10:31;14.00;99.90
9437;DHT22;4757;59.334;18.034;2022-09-02T16:13:01;13.70;99.90
9437;DHT22;4757;59.334;18.034;2022-09-02T16:15:31;13.80;99.90
9437;DHT22;4757;59.334;18.034;2022-09-02T16:18:00;13.80;99.90
9437;DHT22;4757;59.334;18.034;2022-09-02T16:20:27;13.90;99.90
9437;DHT22;4757;59.334;18.034;2022-09-02T16:22:54;13.60;99.90
9437;DHT22;4757;59.334;18.034;2022-09-02T16:25:21;13.70;99.90
9437;DHT22;4757;59.334;18.034;2022-09-02T16:27:48;13.70;99.90
9437;DHT22;4757;59.334;18.034;2022-09-02T16:30:20;13.70;99.90
9437;DHT22;4757;59.334;18.034;2022-09-02T16:32:47;13.60;99.90
9437;DHT22;4757;59.334;18.034;2022-09-02T16:35:17;13.70;99.90
9437;DHT22;4757;59.334;18.034;2022-09-02T16:37:44;13.80;99.90
9437;DHT22;4757;59.334;18.034;2022-09-02T16:40:11;13.70;99.90
9437;DHT22;4757;59.334;18.034;2022-09-02T16:42:47;13.70;99.90
9437;DHT22;4757;59.334;18.034;2022-09-02T16:45:14;13.60;99.90
9437;DHT22;4757;59.334;18.034;2022-09-02T16:47:41;13.40;99.90
9437;DHT22;4757;59.334;18.034;2022-09-02T16:50:08;13.40;99.90
9437;DHT22;4757;59.334;18.034;2022-09-02T16:52:37;13.10;99.90
9437;DHT22;4757;59.334;18.034;2022-09-02T16:55:05;13.00;99.90
9437;DHT22;4757;59.334;18.034;2022-09-02T16:57:33;13.00;99.90
9437;DHT22;4757;59.334;18.034;2022-09-02T17:00:00;13.00;99.90
9437;DHT22;4757;59.334;18.034;2022-09-02T17:02:27;13.10;99.90
9437;DHT22;4757;59.334;18.034;2022-09-02T17:04:56;13.10;99.90
9437;DHT22;4757;59.334;18.034;2022-09-02T17:07:23;12.80;99.90
9437;DHT22;4757;59.334;18.034;2022-09-02T17:09:50;13.10;99.90
9437;DHT22;4757;59.334;18.034;2022-09-02T17:12:17;13.00;99.90
9437;DHT22;4757;59.334;18.034;2022-09-02T17:14:44;12.90;99.90
9437;DHT22;4757;59.334;18.034;2022-09-02T17:17:11;12.70;99.90
9437;DHT22;4757;59.334;18.034;2022-09-02T17:19:42;12.70;99.90
9437;DHT22;4757;59.334;18.034;2022-09-02T17:22:09;12.70;99.90
9437;DHT22;4757;59.334;18.034;2022-09-02T17:24:36;12.70;99.90
9437;DHT22;4757;59.334;18.034;2022-09-02T17:27:05;12.60;99.90
9437;DHT22;4757;59.334;18.034;2022-09-02T17:29:32;12.70;99.90
9437;DHT22;4757;59.334;18.034;2022-09-02T17:32:17;12.70;99.90
9437;DHT22;4757;59.334;18.034;2022-09-02T17:34:44;12.70;99.90
9437;DHT22;4757;59.334;18.034;2022-09-02T17:37:12;12.70;99.90
9437;DHT22;4757;59.334;18.034;2022-09-02T17:39:39;12.70;99.90
9437;DHT22;4757;59.334;18.034;2022-09-02T17:42:06;12.70;99.90
9437;DHT22;4757;59.334;18.034;2022-09-02T17:44:35;12.70;99.90
9437;DHT22;4757;59.334;18.034;2022-09-02T17:47:12;12.60;99.90
9437;DHT22;4757;59.334;18.034;2022-09-02T17:49:40;12.70;99.90
9437;DHT22;4757;59.334;18.034;2022-09-02T17:52:14;12.60;99.90
9437;DHT22;4757;59.334;18.034;2022-09-02T17:54:42;12.60;99.90
9437;DHT22;4757;59.334;18.034;2022-09-02T17:57:18;12.80;99.90
9437;DHT22;4757;59.334;18.034;2022-09-02T17:59:50;12.70;99.90
9437;DHT22;4757;59.334;18.034;2022-09-02T18:10:33;12.70;99.90
9437;DHT22;4757;59.334;18.034;2022-09-02T18:13:08;12.80;99.90
9437;DHT22;4757;59.334;18.034;2022-09-02T18:18:50;12.80;99.90
9437;DHT22;4757;59.334;18.034;2022-09-02T18:21:28;12.80;99.90
9437;DHT22;4757;59.334;18.034;2022-09-02T18:24:02;12.60;99.90
9437;DHT22;4757;59.334;18.034;2022-09-02T18:32:48;12.70;99.90